Time;durP1;ratioP1;P1;durP2;ratioP2;P2;SDS_P1;SDS_P2;PMS_P1;PMS_P2;Temp;Humidity;BMP_temperature;BMP_pressure;BME280_temperature;BME280_humidity;BME280_pressure;Samples;Min_cycle;Max_cycle;Signal;HPM_P1;HPM_P2
2023/08/04 00:00:33;;;;;;;;;5.33;5.33;;;;;;;;5080443;28;45501;-86
2023/08/04 00:02:59;;;;;;;;;8.33;5.00;;;;;;;;5069602;28;45995;-85
2023/08/04 00:05:24;;;;;;;;;6.33;5.00;;;;;;;;5063098;28;45583;-86
2023/08/04 00:07:49;;;;;;;;;6.33;6.33;;;;;;;;5041222;28;45771;-87
2023/08/04 00:10:15;;;;;;;;;9.67;7.33;;;;;;;;5051591;28;46014;-85
2023/08/04 00:12:40;;;;;;;;;6.00;6.00;;;;;;;;5056483;28;45444;-85
2023/08/04 00:15:06;;;;;;;;;6.00;5.33;;;;;;;;5049084;28;45888;-86
2023/08/04 00:17:35;;;;;;;;;4.33;2.33;;;;;;;;5077669;28;45343;-86
2023/08/04 00:20:03;;;;;;;;;8.00;6.67;;;;;;;;5055187;28;48271;-83
2023/08/04 00:22:28;;;;;;;;;13.67;10.00;;;;;;;;5073399;28;45374;-80
2023/08/04 00:24:53;;;;;;;;;12.00;7.00;;;;;;;;5056991;28;45522;-82
2023/08/04 00:27:19;;;;;;;;;5.67;5.67;;;;;;;;5074314;28;45699;-81
2023/08/04 00:29:44;;;;;;;;;8.00;6.67;;;;;;;;5058784;28;47115;-81
2023/08/04 00:32:09;;;;;;;;;6.00;5.00;;;;;;;;5055095;28;45478;-81
2023/08/04 00:34:34;;;;;;;;;6.67;6.67;;;;;;;;5072792;28;45495;-80
2023/08/04 00:36:59;;;;;;;;;6.67;6.67;;;;;;;;5040572;28;46932;-80
2023/08/04 00:39:25;;;;;;;;;8.67;7.67;;;;;;;;5052972;28;45783;-80
2023/08/04 00:41:50;;;;;;;;;3.67;3.67;;;;;;;;5053776;28;46147;-80
2023/08/04 00:44:15;;;;;;;;;8.00;7.33;;;;;;;;5053322;28;45766;-79
2023/08/04 00:46:41;;;;;;;;;5.67;5.67;;;;;;;;5071952;28;45543;-79
2023/08/04 00:49:06;;;;;;;;;9.00;5.00;;;;;;;;5053258;28;46631;-80
2023/08/04 00:51:32;;;;;;;;;5.00;4.00;;;;;;;;5040239;28;45528;-79
2023/08/04 00:53:58;;;;;;;;;6.00;5.67;;;;;;;;5072079;28;45492;-80
2023/08/04 00:56:23;;;;;;;;;5.00;5.00;;;;;;;;5071297;28;46178;-81
2023/08/04 00:58:50;;;;;;;;;6.00;6.00;;;;;;;;5072037;28;46033;-82
2023/08/04 01:01:15;;;;;;;;;7.00;5.33;;;;;;;;5054153;28;45433;-81
2023/08/04 01:03:42;;;;;;;;;10.00;9.67;;;;;;;;5072873;28;45700;-80
2023/08/04 01:06:10;;;;;;;;;8.33;7.00;;;;;;;;5072435;28;45771;-83
2023/08/04 01:08:35;;;;;;;;;6.67;6.33;;;;;;;;5072139;28;46623;-79
2023/08/04 01:11:05;;;;;;;;;8.00;8.00;;;;;;;;5060283;28;45491;-80
2023/08/04 01:13:31;;;;;;;;;6.00;4.50;;;;;;;;5064807;28;45450;-81
2023/08/04 01:15:57;;;;;;;;;12.67;9.00;;;;;;;;5055888;28;45388;-81
2023/08/04 01:18:23;;;;;;;;;7.00;5.67;;;;;;;;5054035;28;46157;-79
2023/08/04 01:20:48;;;;;;;;;5.33;5.33;;;;;;;;5072721;28;45396;-80
2023/08/04 01:23:15;;;;;;;;;7.67;7.67;;;;;;;;5053107;28;45724;-79
2023/08/04 01:25:41;;;;;;;;;7.33;7.33;;;;;;;;5069872;28;45644;-80
2023/08/04 01:28:15;;;;;;;;;6.67;6.00;;;;;;;;5051590;28;46561;-80
2023/08/04 01:30:42;;;;;;;;;7.00;7.00;;;;;;;;5068304;28;45445;-79
2023/08/04 01:33:07;;;;;;;;;8.00;8.00;;;;;;;;5072200;28;45810;-79
2023/08/04 01:35:33;;;;;;;;;10.33;9.33;;;;;;;;5073866;28;45875;-79
2023/08/04 01:37:58;;;;;;;;;11.67;9.33;;;;;;;;5078683;28;46349;-80
2023/08/04 01:40:23;;;;;;;;;8.00;8.00;;;;;;;;5080475;28;45791;-80
2023/08/04 01:42:49;;;;;;;;;8.00;8.00;;;;;;;;5076961;28;45439;-79
2023/08/04 01:45:14;;;;;;;;;9.00;8.67;;;;;;;;5074984;28;46041;-79
2023/08/04 01:47:40;;;;;;;;;7.33;6.00;;;;;;;;5074853;28;46050;-80
2023/08/04 01:50:06;;;;;;;;;7.00;6.67;;;;;;;;5076433;28;45676;-79
2023/08/04 01:52:32;;;;;;;;;6.33;6.33;;;;;;;;5076479;28;45606;-80
2023/08/04 01:54:58;;;;;;;;;11.00;9.00;;;;;;;;5075225;28;45698;-80
2023/08/04 01:57:23;;;;;;;;;9.00;9.00;;;;;;;;5055932;28;46814;-78
2023/08/04 01:59:49;;;;;;;;;8.67;8.67;;;;;;;;5062603;28;45783;-79
2023/08/04 02:02:14;;;;;;;;;10.33;8.33;;;;;;;;5075943;28;45753;-80
2023/08/04 02:04:39;;;;;;;;;8.33;8.33;;;;;;;;5074826;28;45399;-81
2023/08/04 02:07:04;;;;;;;;;8.67;7.33;;;;;;;;5056860;28;47121;-80
2023/08/04 02:09:30;;;;;;;;;7.00;6.00;;;;;;;;5057257;28;45902;-80
2023/08/04 02:11:55;;;;;;;;;11.33;8.33;;;;;;;;5046214;28;45550;-79
2023/08/04 02:14:23;;;;;;;;;10.00;8.33;;;;;;;;5074230;28;45388;-80
2023/08/04 02:16:49;;;;;;;;;9.67;9.67;;;;;;;;5056647;28;48554;-79
2023/08/04 02:19:14;;;;;;;;;8.00;8.00;;;;;;;;5061967;28;45472;-80
2023/08/04 02:21:39;;;;;;;;;8.67;6.67;;;;;;;;5066795;28;45803;-79
2023/08/04 02:24:05;;;;;;;;;9.00;7.33;;;;;;;;5051042;28;46098;-78
2023/08/04 02:26:30;;;;;;;;;7.00;7.00;;;;;;;;5055093;28;47106;-79
2023/08/04 02:28:57;;;;;;;;;12.00;7.33;;;;;;;;5076499;28;45762;-82
2023/08/04 02:31:24;;;;;;;;;7.33;7.33;;;;;;;;5073378;28;45743;-79
2023/08/04 02:33:50;;;;;;;;;9.00;6.33;;;;;;;;5073440;28;45442;-78
2023/08/04 02:36:16;;;;;;;;;8.00;7.67;;;;;;;;5073790;28;45512;-79
2023/08/04 02:38:41;;;;;;;;;9.00;9.00;;;;;;;;5074312;28;45702;-81
2023/08/04 02:41:08;;;;;;;;;8.00;8.00;;;;;;;;5065029;28;45520;-82
2023/08/04 02:43:33;;;;;;;;;6.00;6.00;;;;;;;;5070276;28;45925;-79
2023/08/04 02:45:58;;;;;;;;;6.00;5.67;;;;;;;;5055192;28;47935;-79
2023/08/04 02:48:24;;;;;;;;;10.33;9.33;;;;;;;;5054998;28;45854;-79
2023/08/04 02:51:03;;;;;;;;;7.67;6.33;;;;;;;;5059331;27;45683;-79
2023/08/04 02:53:29;;;;;;;;;11.67;8.67;;;;;;;;5061766;28;46293;-79
2023/08/04 02:55:54;;;;;;;;;6.00;6.00;;;;;;;;5061278;28;47003;-80
2023/08/04 02:58:20;;;;;;;;;11.00;8.33;;;;;;;;5071716;28;45431;-78
2023/08/04 03:00:46;;;;;;;;;7.67;7.33;;;;;;;;5065836;28;45921;-79
2023/08/04 03:03:11;;;;;;;;;7.33;6.67;;;;;;;;5065057;28;45498;-79
2023/08/04 03:05:36;;;;;;;;;11.00;9.67;;;;;;;;5071541;28;45483;-81
2023/08/04 03:08:02;;;;;;;;;11.33;9.67;;;;;;;;5054028;28;45731;-79
2023/08/04 03:10:27;;;;;;;;;13.33;9.67;;;;;;;;5063875;28;45980;-79
2023/08/04 03:12:53;;;;;;;;;9.67;8.67;;;;;;;;5051276;28;45914;-79
2023/08/04 03:15:18;;;;;;;;;8.33;8.33;;;;;;;;5073258;28;46170;-81
2023/08/04 03:17:43;;;;;;;;;9.00;7.67;;;;;;;;5072888;28;45508;-79
2023/08/04 03:20:09;;;;;;;;;10.33;10.33;;;;;;;;5064356;28;45714;-79
2023/08/04 03:22:34;;;;;;;;;11.67;7.00;;;;;;;;5069935;28;45674;-79
2023/08/04 03:24:59;;;;;;;;;11.33;9.33;;;;;;;;5072642;28;46859;-79
2023/08/04 03:27:25;;;;;;;;;10.67;10.67;;;;;;;;5060192;28;46037;-80
2023/08/04 03:29:50;;;;;;;;;10.00;8.33;;;;;;;;5054657;28;45418;-79
2023/08/04 03:32:15;;;;;;;;;11.33;9.00;;;;;;;;5054992;28;45471;-79
2023/08/04 03:34:40;;;;;;;;;9.00;8.33;;;;;;;;5072537;28;45734;-80
2023/08/04 03:37:06;;;;;;;;;12.67;9.00;;;;;;;;5072547;28;45841;-79
2023/08/04 03:39:31;;;;;;;;;9.00;8.67;;;;;;;;5073566;28;45636;-79
2023/08/04 03:41:56;;;;;;;;;8.33;7.00;;;;;;;;5053792;28;46187;-80
2023/08/04 03:44:22;;;;;;;;;10.33;9.33;;;;;;;;5071837;28;45996;-79
2023/08/04 03:46:47;;;;;;;;;8.67;8.33;;;;;;;;5053460;28;45824;-78
2023/08/04 03:49:12;;;;;;;;;4.33;4.33;;;;;;;;5074935;28;45536;-80
2023/08/04 03:51:37;;;;;;;;;13.00;10.33;;;;;;;;5057376;28;46201;-79
2023/08/04 03:54:03;;;;;;;;;10.00;9.00;;;;;;;;5053450;28;47663;-82
2023/08/04 03:56:28;;;;;;;;;9.67;7.33;;;;;;;;5058865;28;45746;-79
2023/08/04 03:58:54;;;;;;;;;11.67;10.67;;;;;;;;5072304;28;45747;-80
2023/08/04 04:01:19;;;;;;;;;10.33;7.67;;;;;;;;5071538;28;45429;-80
2023/08/04 04:03:44;;;;;;;;;12.67;9.00;;;;;;;;5052921;28;47008;-80
2023/08/04 04:06:09;;;;;;;;;10.67;10.67;;;;;;;;5071829;28;45514;-79
2023/08/04 04:08:35;;;;;;;;;10.00;8.33;;;;;;;;5073104;28;45744;-79
2023/08/04 04:11:00;;;;;;;;;10.33;9.00;;;;;;;;5041488;28;45837;-80
2023/08/04 04:13:25;;;;;;;;;9.67;8.67;;;;;;;;5075126;28;45778;-79
2023/08/04 04:15:50;;;;;;;;;9.67;8.00;;;;;;;;5056595;28;45518;-79
2023/08/04 04:18:16;;;;;;;;;13.00;13.00;;;;;;;;5080830;28;45387;-81
2023/08/04 04:20:41;;;;;;;;;12.00;10.00;;;;;;;;5054674;28;46127;-81
2023/08/04 04:23:09;;;;;;;;;11.00;9.33;;;;;;;;5063760;28;46872;-81
2023/08/04 04:25:34;;;;;;;;;11.33;9.00;;;;;;;;5060251;28;45505;-79
2023/08/04 04:27:59;;;;;;;;;15.67;11.00;;;;;;;;5074483;28;45483;-81
2023/08/04 04:30:25;;;;;;;;;13.67;11.33;;;;;;;;5058492;28;45977;-81
2023/08/04 04:32:50;;;;;;;;;8.67;8.67;;;;;;;;5076554;28;45977;-80
2023/08/04 04:35:15;;;;;;;;;10.33;10.33;;;;;;;;5076271;28;45437;-80
2023/08/04 04:37:40;;;;;;;;;13.67;10.33;;;;;;;;5054044;28;45481;-79
2023/08/04 04:40:06;;;;;;;;;13.00;10.67;;;;;;;;5051862;28;46841;-80
2023/08/04 04:42:34;;;;;;;;;11.00;11.00;;;;;;;;5046133;28;48034;-78
2023/08/04 04:45:00;;;;;;;;;12.67;9.67;;;;;;;;5051095;28;45783;-81
2023/08/04 04:47:25;;;;;;;;;17.33;15.00;;;;;;;;5049070;28;45858;-79
2023/08/04 04:49:51;;;;;;;;;14.00;13.00;;;;;;;;5070366;28;45462;-81
2023/08/04 04:52:28;;;;;;;;;12.67;11.67;;;;;;;;5070979;28;46371;-80
2023/08/04 04:54:54;;;;;;;;;10.67;10.00;;;;;;;;5047257;28;45806;-80
2023/08/04 04:57:19;;;;;;;;;14.00;10.33;;;;;;;;5065276;28;45821;-80
2023/08/04 04:59:44;;;;;;;;;14.33;9.33;;;;;;;;5052327;28;45742;-80
2023/08/04 05:02:09;;;;;;;;;18.67;11.33;;;;;;;;5069425;28;45701;-79
2023/08/04 05:04:35;;;;;;;;;15.67;13.00;;;;;;;;5068078;28;45577;-80
2023/08/04 05:07:00;;;;;;;;;11.33;11.33;;;;;;;;5040448;28;46081;-80
2023/08/04 05:09:25;;;;;;;;;9.67;7.00;;;;;;;;5065689;28;45783;-80
2023/08/04 05:11:51;;;;;;;;;16.67;12.33;;;;;;;;5052525;28;45773;-79
2023/08/04 05:14:16;;;;;;;;;11.00;10.33;;;;;;;;5047330;28;45751;-80
2023/08/04 05:16:42;;;;;;;;;14.67;12.33;;;;;;;;5071888;28;45758;-79
2023/08/04 05:19:07;;;;;;;;;7.00;7.00;;;;;;;;5062707;28;45413;-79
2023/08/04 05:21:32;;;;;;;;;13.00;10.67;;;;;;;;5072290;28;46174;-79
2023/08/04 05:23:58;;;;;;;;;12.00;10.33;;;;;;;;5071576;28;46219;-80
2023/08/04 05:26:23;;;;;;;;;12.00;9.33;;;;;;;;5053318;28;45484;-80
2023/08/04 05:28:48;;;;;;;;;12.33;12.33;;;;;;;;5052812;28;45768;-81
2023/08/04 05:31:14;;;;;;;;;9.67;9.67;;;;;;;;5058867;28;45541;-81
2023/08/04 05:33:39;;;;;;;;;15.67;11.67;;;;;;;;5049228;28;45352;-81
2023/08/04 05:36:04;;;;;;;;;16.67;13.67;;;;;;;;5049519;28;45363;-80
2023/08/04 05:38:30;;;;;;;;;14.67;14.00;;;;;;;;5057659;28;45398;-81
2023/08/04 05:40:59;;;;;;;;;11.67;10.33;;;;;;;;5075794;28;47071;-80
2023/08/04 05:43:24;;;;;;;;;11.67;10.67;;;;;;;;5080680;28;45268;-79
2023/08/04 05:45:50;;;;;;;;;10.33;10.33;;;;;;;;5072167;28;46144;-80
2023/08/04 05:48:15;;;;;;;;;14.67;10.33;;;;;;;;5051545;28;45510;-79
2023/08/04 05:50:41;;;;;;;;;15.00;11.33;;;;;;;;5066055;28;46200;-82
2023/08/04 05:53:06;;;;;;;;;11.33;11.33;;;;;;;;5060155;28;45974;-79
2023/08/04 05:55:32;;;;;;;;;14.33;12.00;;;;;;;;5066603;28;45792;-79
2023/08/04 05:57:57;;;;;;;;;16.00;14.33;;;;;;;;5070295;28;45554;-80
2023/08/04 06:00:23;;;;;;;;;12.33;11.33;;;;;;;;5065660;28;45798;-80
2023/08/04 06:02:48;;;;;;;;;12.67;12.67;;;;;;;;5051978;28;45370;-81
2023/08/04 06:05:13;;;;;;;;;10.67;10.67;;;;;;;;5050991;28;45939;-80
2023/08/04 06:07:42;;;;;;;;;13.33;13.33;;;;;;;;5051528;28;46243;-80
2023/08/04 06:10:08;;;;;;;;;13.00;11.33;;;;;;;;5055729;28;45889;-81
2023/08/04 06:12:34;;;;;;;;;13.00;12.00;;;;;;;;5064586;28;45519;-80
2023/08/04 06:15:00;;;;;;;;;13.67;11.67;;;;;;;;5052501;28;45571;-79
2023/08/04 06:17:25;;;;;;;;;17.00;10.33;;;;;;;;5068577;28;45513;-79
2023/08/04 06:19:50;;;;;;;;;12.00;9.67;;;;;;;;5070562;28;45996;-80
2023/08/04 06:22:16;;;;;;;;;17.67;12.33;;;;;;;;5066888;28;45768;-82
2023/08/04 06:24:42;;;;;;;;;17.33;16.00;;;;;;;;5083928;28;45544;-88
2023/08/04 06:27:07;;;;;;;;;14.33;12.33;;;;;;;;5068302;28;46252;-87
2023/08/04 06:29:33;;;;;;;;;14.00;13.33;;;;;;;;5085301;28;45832;-86
2023/08/04 06:31:58;;;;;;;;;19.33;15.67;;;;;;;;5066225;28;45447;-86
2023/08/04 06:34:23;;;;;;;;;12.33;12.33;;;;;;;;5065523;28;45648;-86
2023/08/04 06:36:49;;;;;;;;;13.67;12.33;;;;;;;;5078386;28;45627;-86
2023/08/04 06:39:14;;;;;;;;;11.67;10.00;;;;;;;;5078727;28;45393;-87
2023/08/04 06:41:41;;;;;;;;;17.00;13.33;;;;;;;;5053071;28;45483;-85
2023/08/04 06:44:06;;;;;;;;;9.67;9.67;;;;;;;;5072102;28;46208;-84
2023/08/04 06:46:32;;;;;;;;;12.00;9.00;;;;;;;;5086266;28;45444;-85
2023/08/04 06:48:57;;;;;;;;;13.00;11.00;;;;;;;;5068801;28;47204;-86
2023/08/04 06:51:23;;;;;;;;;15.33;13.33;;;;;;;;5077481;28;45669;-85
2023/08/04 06:53:48;;;;;;;;;14.33;14.33;;;;;;;;5068697;28;45519;-88
2023/08/04 06:56:15;;;;;;;;;9.00;9.00;;;;;;;;5067941;28;45469;-87
2023/08/04 06:58:41;;;;;;;;;17.00;13.67;;;;;;;;5058769;28;47270;-87
2023/08/04 07:01:07;;;;;;;;;17.33;15.00;;;;;;;;5079014;28;45418;-87
2023/08/04 07:03:32;;;;;;;;;17.33;13.00;;;;;;;;5056704;28;45564;-88
2023/08/04 07:05:57;;;;;;;;;14.00;10.33;;;;;;;;5086580;28;45411;-86
2023/08/04 07:08:23;;;;;;;;;18.00;13.33;;;;;;;;5086960;28;45403;-88
2023/08/04 07:10:49;;;;;;;;;11.67;11.00;;;;;;;;5090099;28;44745;-86
2023/08/04 07:13:14;;;;;;;;;13.67;12.67;;;;;;;;5084100;28;45395;-86
2023/08/04 07:15:40;;;;;;;;;9.33;8.33;;;;;;;;5052177;28;45587;-87
2023/08/04 07:18:05;;;;;;;;;11.33;11.33;;;;;;;;5086177;28;45738;-86
2023/08/04 07:20:31;;;;;;;;;13.67;10.67;;;;;;;;5067263;28;45464;-86
2023/08/04 07:22:57;;;;;;;;;17.00;10.67;;;;;;;;5071932;28;45576;-85
2023/08/04 07:25:22;;;;;;;;;14.00;12.33;;;;;;;;5091285;28;45354;-86
2023/08/04 07:27:48;;;;;;;;;10.67;9.67;;;;;;;;5073764;28;46766;-86
2023/08/04 07:30:15;;;;;;;;;10.67;10.00;;;;;;;;5083717;28;45915;-88
2023/08/04 07:32:40;;;;;;;;;7.67;7.67;;;;;;;;5076756;28;45221;-87
2023/08/04 07:35:05;;;;;;;;;10.25;10.25;;;;;;;;5078373;28;45897;-88
2023/08/04 07:37:31;;;;;;;;;14.67;11.67;;;;;;;;5095436;28;45297;-88
2023/08/04 07:39:56;;;;;;;;;13.67;12.33;;;;;;;;5066991;28;45864;-79
2023/08/04 07:42:21;;;;;;;;;12.33;8.00;;;;;;;;5062238;28;45931;-81
2023/08/04 07:44:52;;;;;;;;;13.33;12.33;;;;;;;;5080191;28;45433;-88
2023/08/04 07:47:17;;;;;;;;;10.33;10.33;;;;;;;;5081836;28;45456;-86
2023/08/04 07:49:42;;;;;;;;;11.33;9.00;;;;;;;;5059062;28;45818;-81
2023/08/04 07:52:08;;;;;;;;;15.33;13.00;;;;;;;;5056833;28;45615;-81
2023/08/04 07:54:34;;;;;;;;;13.33;10.00;;;;;;;;5076059;28;45604;-81
2023/08/04 07:57:01;;;;;;;;;14.67;10.67;;;;;;;;5056095;28;46768;-80
2023/08/04 07:59:26;;;;;;;;;9.00;8.33;;;;;;;;5074091;28;45409;-87
2023/08/04 08:01:54;;;;;;;;;11.00;9.67;;;;;;;;5064662;28;45386;-85
2023/08/04 08:04:20;;;;;;;;;10.67;10.67;;;;;;;;5085959;28;45481;-86
2023/08/04 08:06:46;;;;;;;;;16.75;12.25;;;;;;;;5080913;28;46371;-88
2023/08/04 08:09:12;;;;;;;;;12.33;9.67;;;;;;;;5079331;28;45387;-85
2023/08/04 08:11:37;;;;;;;;;8.25;8.25;;;;;;;;5050925;28;45399;-86
2023/08/04 08:14:03;;;;;;;;;8.67;8.67;;;;;;;;5065323;28;45849;-89
2023/08/04 08:16:30;;;;;;;;;8.00;7.00;;;;;;;;5083528;28;45425;-88
2023/08/04 08:18:55;;;;;;;;;11.00;7.25;;;;;;;;5074747;28;45474;-86
2023/08/04 08:21:21;;;;;;;;;11.00;8.25;;;;;;;;5059120;28;45439;-85
2023/08/04 08:23:47;;;;;;;;;8.50;8.50;;;;;;;;5060929;28;45764;-88
2023/08/04 08:26:12;;;;;;;;;8.00;8.00;;;;;;;;5061954;28;45700;-87
2023/08/04 08:28:37;;;;;;;;;12.67;11.00;;;;;;;;5087941;28;45576;-86
2023/08/04 08:31:03;;;;;;;;;8.50;7.50;;;;;;;;5080387;28;44793;-87
2023/08/04 08:33:29;;;;;;;;;10.25;9.25;;;;;;;;5094172;28;45202;-88
2023/08/04 08:35:55;;;;;;;;;7.75;6.75;;;;;;;;5082530;28;46463;-88
2023/08/04 08:38:20;;;;;;;;;7.75;7.75;;;;;;;;5082391;28;45773;-88
2023/08/04 08:40:49;;;;;;;;;6.00;6.00;;;;;;;;5059382;28;45487;-80
2023/08/04 08:43:17;;;;;;;;;9.00;9.00;;;;;;;;5074257;28;45632;-87
2023/08/04 08:45:44;;;;;;;;;7.25;6.00;;;;;;;;5053340;28;46684;-86
2023/08/04 08:48:12;;;;;;;;;8.75;6.50;;;;;;;;5058983;28;45751;-81
2023/08/04 08:50:40;;;;;;;;;7.75;7.75;;;;;;;;5076210;28;45922;-85
2023/08/04 08:53:10;;;;;;;;;5.75;5.75;;;;;;;;5063830;28;45623;-85
2023/08/04 08:55:36;;;;;;;;;6.00;4.75;;;;;;;;5081003;28;45868;-87
2023/08/04 08:58:02;;;;;;;;;6.50;5.50;;;;;;;;5058902;28;45514;-88
2023/08/04 09:00:29;;;;;;;;;3.50;3.50;;;;;;;;5060319;28;45454;-85
2023/08/04 09:02:54;;;;;;;;;5.00;5.00;;;;;;;;5079157;28;46000;-86
2023/08/04 09:05:21;;;;;;;;;6.75;5.00;;;;;;;;5050105;28;47420;-86
2023/08/04 09:07:57;;;;;;;;;4.00;4.00;;;;;;;;5054743;28;45660;-80
2023/08/04 09:10:23;;;;;;;;;5.00;5.00;;;;;;;;5056526;28;45450;-88
2023/08/04 09:12:58;;;;;;;;;6.50;5.50;;;;;;;;5064650;28;45735;-79
2023/08/04 09:15:34;;;;;;;;;4.75;3.75;;;;;;;;5058573;28;47190;-86
2023/08/04 09:18:01;;;;;;;;;4.75;4.75;;;;;;;;5077005;28;45638;-85
2023/08/04 09:20:27;;;;;;;;;5.50;4.25;;;;;;;;5061655;28;45489;-81
2023/08/04 09:22:56;;;;;;;;;6.50;4.75;;;;;;;;5081314;28;45557;-85
2023/08/04 09:25:22;;;;;;;;;6.00;5.00;;;;;;;;5066398;28;47043;-81
2023/08/04 09:28:10;;;;;;;;;5.00;5.00;;;;;;;;5062049;28;45391;-81
2023/08/04 09:30:36;;;;;;;;;4.75;4.25;;;;;;;;5063764;28;45809;-86
2023/08/04 09:33:04;;;;;;;;;4.25;4.25;;;;;;;;5057890;28;45393;-82
2023/08/04 09:35:33;;;;;;;;;3.75;3.75;;;;;;;;5059422;28;46081;-80
2023/08/04 09:37:58;;;;;;;;;6.00;3.25;;;;;;;;5074037;28;45425;-87
2023/08/04 09:40:25;;;;;;;;;4.00;2.25;;;;;;;;5057290;28;45502;-86
2023/08/04 09:42:57;;;;;;;;;4.75;4.75;;;;;;;;5050074;28;45692;-82
2023/08/04 09:45:22;;;;;;;;;5.00;4.00;;;;;;;;5074107;28;46604;-88
2023/08/04 09:47:51;;;;;;;;;3.00;3.00;;;;;;;;5054675;28;45702;-79
2023/08/04 09:50:21;;;;;;;;;3.25;3.25;;;;;;;;5052962;28;45969;-87
2023/08/04 09:52:47;;;;;;;;;5.25;3.00;;;;;;;;5047515;28;46025;-88
2023/08/04 09:55:12;;;;;;;;;4.00;3.00;;;;;;;;5076487;28;46141;-87
2023/08/04 09:57:38;;;;;;;;;3.00;3.00;;;;;;;;5057587;28;45502;-84
2023/08/04 10:00:32;;;;;;;;;4.00;4.00;;;;;;;;5057358;28;45367;-87
2023/08/04 10:02:58;;;;;;;;;5.50;5.00;;;;;;;;5046114;28;45440;-86
2023/08/04 10:05:25;;;;;;;;;3.75;3.75;;;;;;;;5082325;28;46596;-86
2023/08/04 10:07:50;;;;;;;;;4.00;3.00;;;;;;;;5077996;28;45797;-80
2023/08/04 10:10:16;;;;;;;;;4.00;3.00;;;;;;;;5067161;28;45465;-80
2023/08/04 10:12:41;;;;;;;;;5.00;4.00;;;;;;;;5075511;28;45599;-81
2023/08/04 10:15:08;;;;;;;;;5.00;5.00;;;;;;;;5055823;28;48217;-88
2023/08/04 10:17:33;;;;;;;;;4.20;4.20;;;;;;;;5063134;28;47302;-89
2023/08/04 10:20:05;;;;;;;;;5.75;4.75;;;;;;;;5056574;28;45474;-81
2023/08/04 10:22:31;;;;;;;;;4.00;4.00;;;;;;;;5051322;28;46968;-80
2023/08/04 10:24:57;;;;;;;;;5.75;4.00;;;;;;;;5055580;28;48435;-82
2023/08/04 10:27:22;;;;;;;;;4.00;4.00;;;;;;;;5073374;28;45729;-81
2023/08/04 10:30:08;;;;;;;;;4.00;4.00;;;;;;;;5054266;28;45936;-80
2023/08/04 10:32:34;;;;;;;;;6.00;6.00;;;;;;;;5068938;28;46377;-80
2023/08/04 10:34:59;;;;;;;;;7.00;5.00;;;;;;;;5036292;28;46466;-81
2023/08/04 10:37:24;;;;;;;;;3.00;3.00;;;;;;;;5053433;28;45861;-80
2023/08/04 10:39:56;;;;;;;;;3.25;3.00;;;;;;;;5055254;28;45359;-80
2023/08/04 10:42:22;;;;;;;;;5.50;5.50;;;;;;;;5055394;28;45713;-81
2023/08/04 10:44:54;;;;;;;;;3.25;3.25;;;;;;;;5074427;28;46202;-81
2023/08/04 10:47:39;;;;;;;;;3.25;3.25;;;;;;;;5076004;28;45413;-81
2023/08/04 10:50:04;;;;;;;;;4.75;3.75;;;;;;;;5053745;28;45960;-81
2023/08/04 10:52:30;;;;;;;;;4.50;4.00;;;;;;;;5066301;28;46668;-80
2023/08/04 10:54:55;;;;;;;;;4.00;4.00;;;;;;;;5056711;28;45591;-80
2023/08/04 10:57:22;;;;;;;;;4.25;4.25;;;;;;;;5054787;28;45439;-82
2023/08/04 10:59:48;;;;;;;;;5.75;5.75;;;;;;;;5073769;28;45497;-81
2023/08/04 11:02:16;;;;;;;;;5.25;3.75;;;;;;;;5068684;28;45563;-82
2023/08/04 11:04:41;;;;;;;;;5.25;3.50;;;;;;;;5057723;28;47915;-82
2023/08/04 11:07:06;;;;;;;;;5.00;3.25;;;;;;;;5082078;28;45460;-80
2023/08/04 11:09:32;;;;;;;;;4.75;3.50;;;;;;;;5068570;28;45359;-80
2023/08/04 11:11:57;;;;;;;;;2.25;2.00;;;;;;;;5059004;28;45605;-82
2023/08/04 11:14:24;;;;;;;;;1.00;1.00;;;;;;;;5073433;28;45628;-81
2023/08/04 11:16:49;;;;;;;;;2.75;2.00;;;;;;;;5072899;28;45761;-81
2023/08/04 11:19:18;;;;;;;;;4.25;2.25;;;;;;;;5072959;28;45997;-81
2023/08/04 11:21:43;;;;;;;;;3.25;2.50;;;;;;;;5071777;28;46746;-80
2023/08/04 11:24:09;;;;;;;;;5.00;2.00;;;;;;;;5071382;28;45715;-81
2023/08/04 11:26:36;;;;;;;;;2.00;1.00;;;;;;;;5053484;28;46101;-81
2023/08/04 11:29:03;;;;;;;;;3.00;1.00;;;;;;;;5072390;28;45814;-81
2023/08/04 11:31:31;;;;;;;;;1.00;1.00;;;;;;;;5071877;28;45400;-80
2023/08/04 11:33:57;;;;;;;;;3.00;2.00;;;;;;;;5052522;28;47011;-79
2023/08/04 11:36:23;;;;;;;;;2.00;2.00;;;;;;;;5063095;28;45629;-83
2023/08/04 11:38:48;;;;;;;;;3.75;3.00;;;;;;;;5057821;28;45830;-79
2023/08/04 11:41:14;;;;;;;;;4.67;4.67;;;;;;;;5073539;28;45489;-81
2023/08/04 11:43:40;;;;;;;;;3.33;2.33;;;;;;;;5077706;28;45606;-85
2023/08/04 11:46:08;;;;;;;;;2.33;2.33;;;;;;;;5074148;28;45887;-81
2023/08/04 11:48:38;;;;;;;;;2.00;2.00;;;;;;;;5077093;28;45390;-83
2023/08/04 11:51:05;;;;;;;;;3.00;3.00;;;;;;;;5078371;28;45686;-86
2023/08/04 11:53:31;;;;;;;;;3.33;3.33;;;;;;;;5070420;28;46089;-87
2023/08/04 11:55:57;;;;;;;;;3.00;3.00;;;;;;;;5060707;28;46037;-88
2023/08/04 11:58:32;;;;;;;;;3.25;3.25;;;;;;;;5070678;28;45465;-88
2023/08/04 12:00:58;;;;;;;;;2.75;2.00;;;;;;;;5077142;28;45922;-80
2023/08/04 12:03:23;;;;;;;;;3.50;2.25;;;;;;;;5073132;28;46160;-88
2023/08/04 12:05:52;;;;;;;;;5.00;3.00;;;;;;;;5062823;28;45439;-88
2023/08/04 12:08:17;;;;;;;;;2.50;2.50;;;;;;;;5061582;28;45740;-87
2023/08/04 12:10:58;;;;;;;;;4.00;3.00;;;;;;;;5062129;28;45439;-89
2023/08/04 12:13:36;;;;;;;;;3.00;3.00;;;;;;;;5080452;28;45412;-87
2023/08/04 12:16:01;;;;;;;;;2.00;1.00;;;;;;;;5057888;28;45880;-87
2023/08/04 12:18:28;;;;;;;;;1.50;1.50;;;;;;;;5068743;28;45912;-88
2023/08/04 12:20:54;;;;;;;;;2.00;2.00;;;;;;;;5061871;28;45841;-85
2023/08/04 12:23:19;;;;;;;;;2.00;2.00;;;;;;;;5078098;28;46307;-80
2023/08/04 12:25:44;;;;;;;;;3.50;2.25;;;;;;;;5072301;28;45895;-80
2023/08/04 12:28:11;;;;;;;;;2.00;2.00;;;;;;;;5072354;28;45796;-81
2023/08/04 12:30:37;;;;;;;;;2.00;2.00;;;;;;;;5055844;28;45385;-81
2023/08/04 12:33:02;;;;;;;;;1.00;1.00;;;;;;;;5058693;28;46926;-87
2023/08/04 12:35:31;;;;;;;;;3.25;2.00;;;;;;;;5056888;28;45919;-87
2023/08/04 12:37:58;;;;;;;;;3.25;3.25;;;;;;;;5056825;28;45556;-83
2023/08/04 12:40:23;;;;;;;;;2.00;2.00;;;;;;;;5068883;28;45890;-85
2023/08/04 12:42:49;;;;;;;;;4.00;3.25;;;;;;;;5059611;28;47115;-86
2023/08/04 12:45:14;;;;;;;;;5.00;3.00;;;;;;;;5057565;28;45596;-85
2023/08/04 12:47:39;;;;;;;;;2.00;2.00;;;;;;;;5050246;28;45516;-86
2023/08/04 12:50:05;;;;;;;;;4.00;3.00;;;;;;;;5052829;28;45611;-80
2023/08/04 12:52:30;;;;;;;;;2.25;2.25;;;;;;;;5054633;28;45452;-81
2023/08/04 12:54:56;;;;;;;;;4.75;4.75;;;;;;;;5056343;28;45681;-82
2023/08/04 12:57:21;;;;;;;;;4.25;4.00;;;;;;;;5062874;28;44882;-82
2023/08/04 12:59:46;;;;;;;;;3.25;3.25;;;;;;;;5052847;28;45522;-81
2023/08/04 13:02:11;;;;;;;;;4.75;4.00;;;;;;;;5062382;28;46500;-85
2023/08/04 13:04:37;;;;;;;;;4.25;4.25;;;;;;;;5061841;28;45321;-88
2023/08/04 13:07:03;;;;;;;;;3.25;3.00;;;;;;;;5045534;28;45469;-86
2023/08/04 13:09:29;;;;;;;;;3.00;3.00;;;;;;;;5050357;28;46489;-85
2023/08/04 13:11:54;;;;;;;;;3.75;3.50;;;;;;;;5056236;28;48486;-86
2023/08/04 13:14:20;;;;;;;;;3.75;3.75;;;;;;;;5057054;28;45025;-86
2023/08/04 13:16:46;;;;;;;;;5.75;4.25;;;;;;;;5055199;28;45699;-86
2023/08/04 13:19:11;;;;;;;;;3.00;3.00;;;;;;;;5051313;28;46106;-83
2023/08/04 13:21:36;;;;;;;;;3.00;3.00;;;;;;;;5047698;28;47739;-83
2023/08/04 13:24:03;;;;;;;;;3.50;2.25;;;;;;;;5052112;28;45880;-83
2023/08/04 13:26:32;;;;;;;;;3.00;3.00;;;;;;;;5054884;28;46017;-84
2023/08/04 13:28:58;;;;;;;;;2.75;2.75;;;;;;;;5052900;28;47362;-82
2023/08/04 13:31:23;;;;;;;;;5.50;3.25;;;;;;;;5047314;28;46539;-83
2023/08/04 13:33:50;;;;;;;;;3.00;3.00;;;;;;;;5049173;28;45750;-80
2023/08/04 13:36:20;;;;;;;;;3.00;3.00;;;;;;;;5045625;28;45833;-82
2023/08/04 13:38:46;;;;;;;;;4.50;2.50;;;;;;;;5050093;28;45550;-81
2023/08/04 13:41:12;;;;;;;;;4.00;4.00;;;;;;;;5048621;28;48421;-84
2023/08/04 13:43:39;;;;;;;;;4.25;4.25;;;;;;;;5049677;28;46198;-85
2023/08/04 13:46:05;;;;;;;;;4.00;2.75;;;;;;;;5032140;28;45868;-86
2023/08/04 13:48:55;;;;;;;;;5.00;3.50;;;;;;;;5051451;28;45626;-87
2023/08/04 13:51:23;;;;;;;;;5.75;5.25;;;;;;;;5050551;28;47109;-85
2023/08/04 13:54:00;;;;;;;;;3.50;3.50;;;;;;;;5022136;28;45490;-80
2023/08/04 13:56:35;;;;;;;;;3.75;3.00;;;;;;;;5036544;28;45812;-80
2023/08/04 13:59:03;;;;;;;;;3.00;3.00;;;;;;;;5045427;28;45618;-81
2023/08/04 14:01:37;;;;;;;;;3.75;3.00;;;;;;;;5035962;28;45486;-82
2023/08/04 14:04:09;;;;;;;;;5.00;3.00;;;;;;;;5034651;28;45665;-82
2023/08/04 14:06:35;;;;;;;;;3.00;3.00;;;;;;;;5051696;28;45414;-82
2023/08/04 14:09:07;;;;;;;;;3.00;3.00;;;;;;;;5037935;28;45396;-85
2023/08/04 14:11:36;;;;;;;;;2.50;2.50;;;;;;;;5042943;28;45377;-84
2023/08/04 14:14:02;;;;;;;;;4.00;4.00;;;;;;;;5039574;28;45489;-85
2023/08/04 14:16:28;;;;;;;;;2.25;2.25;;;;;;;;5045293;28;45430;-84
2023/08/04 14:18:59;;;;;;;;;3.25;2.00;;;;;;;;5044597;28;45643;-86
2023/08/04 14:21:27;;;;;;;;;4.50;3.50;;;;;;;;5024625;28;45431;-82
2023/08/04 14:23:57;;;;;;;;;4.50;3.75;;;;;;;;5030187;28;45483;-84
2023/08/04 14:26:22;;;;;;;;;2.50;2.00;;;;;;;;5030550;28;45412;-82
2023/08/04 14:28:48;;;;;;;;;3.00;3.00;;;;;;;;5039078;28;45289;-85
2023/08/04 14:31:14;;;;;;;;;1.25;1.25;;;;;;;;5048483;28;46902;-83